sensor_id;sensor_type;location;lat;lon;timestamp;pressure;altitude;pressure_sealevel;temperature;humidity
59588;BME280;45412;54.472;18.464;2024-03-17T00:02:07;99518.55;;;4.02;93.89
59588;BME280;45412;54.472;18.464;2024-03-17T00:04:55;99522.05;;;4.02;94.14
59588;BME280;45412;54.472;18.464;2024-03-17T00:07:41;99522.77;;;4.01;93.99
59588;BME280;45412;54.472;18.464;2024-03-17T00:10:28;99519.57;;;4.02;94.08
59588;BME280;45412;54.472;18.464;2024-03-17T00:13:17;99528.36;;;4.02;94.05
59588;BME280;45412;54.472;18.464;2024-03-17T00:16:05;99524.27;;;4.03;94.20
59588;BME280;45412;54.472;18.464;2024-03-17T00:18:52;99521.63;;;4.03;94.53
59588;BME280;45412;54.472;18.464;2024-03-17T00:21:39;99519.89;;;4.03;94.45
59588;BME280;45412;54.472;18.464;2024-03-17T00:24:26;99521.23;;;4.04;94.89
59588;BME280;45412;54.472;18.464;2024-03-17T00:27:20;99518.59;;;4.04;95.02
59588;BME280;45412;54.472;18.464;2024-03-17T00:30:07;99519.59;;;4.05;95.14
59588;BME280;45412;54.472;18.464;2024-03-17T00:32:59;99515.71;;;4.02;95.26
59588;BME280;45412;54.472;18.464;2024-03-17T00:35:45;99517.96;;;4.03;95.78
59588;BME280;45412;54.472;18.464;2024-03-17T00:38:32;99514.46;;;4.02;95.74
59588;BME280;45412;54.472;18.464;2024-03-17T00:41:19;99516.95;;;4.02;95.50
59588;BME280;45412;54.472;18.464;2024-03-17T00:44:07;99517.54;;;4.01;95.77
59588;BME280;45412;54.472;18.464;2024-03-17T00:46:54;99523.61;;;4.02;95.98
59588;BME280;45412;54.472;18.464;2024-03-17T00:49:41;99526.39;;;4.00;97.01
59588;BME280;45412;54.472;18.464;2024-03-17T00:52:28;99527.69;;;3.96;97.82
59588;BME280;45412;54.472;18.464;2024-03-17T00:55:15;99528.73;;;3.93;98.45
59588;BME280;45412;54.472;18.464;2024-03-17T00:58:01;99529.02;;;3.91;99.31
59588;BME280;45412;54.472;18.464;2024-03-17T01:00:48;99535.64;;;3.88;99.72
59588;BME280;45412;54.472;18.464;2024-03-17T01:03:35;99531.88;;;3.84;100.00
59588;BME280;45412;54.472;18.464;2024-03-17T01:06:23;99528.85;;;3.82;100.00
59588;BME280;45412;54.472;18.464;2024-03-17T01:09:09;99528.27;;;3.80;100.00
59588;BME280;45412;54.472;18.464;2024-03-17T01:11:56;99529.98;;;3.77;100.00
59588;BME280;45412;54.472;18.464;2024-03-17T01:14:43;99527.67;;;3.74;99.67
59588;BME280;45412;54.472;18.464;2024-03-17T01:17:30;99529.69;;;3.73;98.94
59588;BME280;45412;54.472;18.464;2024-03-17T01:20:17;99530.83;;;3.72;97.85
59588;BME280;45412;54.472;18.464;2024-03-17T01:23:05;99520.77;;;3.70;97.21
59588;BME280;45412;54.472;18.464;2024-03-17T01:25:51;99516.17;;;3.67;96.76
59588;BME280;45412;54.472;18.464;2024-03-17T01:28:38;99516.08;;;3.63;96.07
59588;BME280;45412;54.472;18.464;2024-03-17T01:31:25;99512.57;;;3.60;95.90
59588;BME280;45412;54.472;18.464;2024-03-17T01:34:12;99519.61;;;3.62;96.12
59588;BME280;45412;54.472;18.464;2024-03-17T01:36:59;99513.89;;;3.61;95.88
59588;BME280;45412;54.472;18.464;2024-03-17T01:39:45;99514.52;;;3.62;95.70
59588;BME280;45412;54.472;18.464;2024-03-17T01:42:32;99517.72;;;3.58;95.24
59588;BME280;45412;54.472;18.464;2024-03-17T01:45:32;99532.10;;;3.59;96.13
59588;BME280;45412;54.472;18.464;2024-03-17T01:48:18;99542.31;;;3.55;98.62
59588;BME280;45412;54.472;18.464;2024-03-17T01:51:06;99540.30;;;3.47;100.00
59588;BME280;45412;54.472;18.464;2024-03-17T01:53:54;99532.94;;;3.34;100.00
59588;BME280;45412;54.472;18.464;2024-03-17T01:56:43;99543.77;;;3.22;100.00
59588;BME280;45412;54.472;18.464;2024-03-17T01:59:29;99547.48;;;3.16;100.00
59588;BME280;45412;54.472;18.464;2024-03-17T02:02:16;99548.91;;;3.12;100.00
59588;BME280;45412;54.472;18.464;2024-03-17T02:05:03;99543.25;;;3.06;100.00
59588;BME280;45412;54.472;18.464;2024-03-17T02:07:53;99537.05;;;3.01;100.00
59588;BME280;45412;54.472;18.464;2024-03-17T02:10:40;99537.73;;;2.95;100.00
59588;BME280;45412;54.472;18.464;2024-03-17T02:13:26;99535.13;;;2.91;100.00
59588;BME280;45412;54.472;18.464;2024-03-17T02:16:13;99542.94;;;2.86;100.00
59588;BME280;45412;54.472;18.464;2024-03-17T02:19:00;99548.79;;;2.79;100.00
59588;BME280;45412;54.472;18.464;2024-03-17T02:21:47;99558.37;;;2.73;100.00
59588;BME280;45412;54.472;18.464;2024-03-17T02:24:34;99549.77;;;2.70;100.00
59588;BME280;45412;54.472;18.464;2024-03-17T02:27:20;99557.09;;;2.67;100.00
59588;BME280;45412;54.472;18.464;2024-03-17T02:30:08;99556.19;;;2.65;100.00
59588;BME280;45412;54.472;18.464;2024-03-17T02:32:55;99562.55;;;2.60;99.54
59588;BME280;45412;54.472;18.464;2024-03-17T02:35:42;99559.55;;;2.58;99.45
59588;BME280;45412;54.472;18.464;2024-03-17T02:38:29;99558.42;;;2.55;98.95
59588;BME280;45412;54.472;18.464;2024-03-17T02:41:36;99557.55;;;2.55;98.96
59588;BME280;45412;54.472;18.464;2024-03-17T02:44:23;99562.02;;;2.53;98.11
59588;BME280;45412;54.472;18.464;2024-03-17T02:47:09;99560.58;;;2.51;98.06
59588;BME280;45412;54.472;18.464;2024-03-17T02:49:56;99564.14;;;2.46;98.11
59588;BME280;45412;54.472;18.464;2024-03-17T02:52:42;99570.21;;;2.44;98.45
59588;BME280;45412;54.472;18.464;2024-03-17T02:55:29;99570.61;;;2.40;97.77
59588;BME280;45412;54.472;18.464;2024-03-17T02:58:16;99567.23;;;2.37;97.63
59588;BME280;45412;54.472;18.464;2024-03-17T03:01:04;99561.10;;;2.34;97.69
59588;BME280;45412;54.472;18.464;2024-03-17T03:03:51;99560.11;;;2.33;97.92
59588;BME280;45412;54.472;18.464;2024-03-17T03:06:38;99564.27;;;2.30;97.74
59588;BME280;45412;54.472;18.464;2024-03-17T03:09:25;99565.51;;;2.30;97.99
59588;BME280;45412;54.472;18.464;2024-03-17T03:12:17;99567.26;;;2.30;98.40
59588;BME280;45412;54.472;18.464;2024-03-17T03:15:04;99570.46;;;2.29;98.85
59588;BME280;45412;54.472;18.464;2024-03-17T03:17:51;99569.34;;;2.30;98.94
59588;BME280;45412;54.472;18.464;2024-03-17T03:20:38;99570.36;;;2.31;98.99
59588;BME280;45412;54.472;18.464;2024-03-17T03:23:24;99571.61;;;2.31;99.08
59588;BME280;45412;54.472;18.464;2024-03-17T03:26:11;99574.27;;;2.30;99.17
59588;BME280;45412;54.472;18.464;2024-03-17T03:28:58;99572.50;;;2.27;99.70
59588;BME280;45412;54.472;18.464;2024-03-17T03:31:45;99571.50;;;2.26;99.96
59588;BME280;45412;54.472;18.464;2024-03-17T03:34:31;99570.03;;;2.24;100.00
59588;BME280;45412;54.472;18.464;2024-03-17T03:37:18;99575.21;;;2.21;100.00
59588;BME280;45412;54.472;18.464;2024-03-17T03:40:06;99574.35;;;2.21;100.00
59588;BME280;45412;54.472;18.464;2024-03-17T03:43:02;99575.71;;;2.22;100.00
59588;BME280;45412;54.472;18.464;2024-03-17T03:45:49;99576.35;;;2.23;100.00
59588;BME280;45412;54.472;18.464;2024-03-17T03:48:36;99574.26;;;2.20;100.00
59588;BME280;45412;54.472;18.464;2024-03-17T03:51:23;99571.66;;;2.16;100.00
59588;BME280;45412;54.472;18.464;2024-03-17T03:54:10;99574.81;;;2.12;100.00
59588;BME280;45412;54.472;18.464;2024-03-17T03:56:58;99575.73;;;2.08;100.00
59588;BME280;45412;54.472;18.464;2024-03-17T03:59:45;99580.58;;;2.05;100.00
59588;BME280;45412;54.472;18.464;2024-03-17T04:02:32;99583.30;;;2.03;100.00
59588;BME280;45412;54.472;18.464;2024-03-17T04:05:21;99582.73;;;2.01;100.00
59588;BME280;45412;54.472;18.464;2024-03-17T04:08:08;99584.87;;;1.99;100.00
59588;BME280;45412;54.472;18.464;2024-03-17T04:10:55;99581.23;;;1.96;100.00
59588;BME280;45412;54.472;18.464;2024-03-17T04:13:42;99581.43;;;1.92;100.00
59588;BME280;45412;54.472;18.464;2024-03-17T04:16:29;99579.30;;;1.89;100.00
59588;BME280;45412;54.472;18.464;2024-03-17T04:19:17;99580.69;;;1.85;100.00
59588;BME280;45412;54.472;18.464;2024-03-17T04:22:04;99581.83;;;1.80;100.00
59588;BME280;45412;54.472;18.464;2024-03-17T04:24:51;99584.42;;;1.74;100.00
59588;BME280;45412;54.472;18.464;2024-03-17T04:27:42;99584.69;;;1.68;100.00
59588;BME280;45412;54.472;18.464;2024-03-17T04:30:30;99591.31;;;1.62;100.00
59588;BME280;45412;54.472;18.464;2024-03-17T04:33:18;99597.62;;;1.57;100.00
59588;BME280;45412;54.472;18.464;2024-03-17T04:36:05;99594.40;;;1.55;100.00
59588;BME280;45412;54.472;18.464;2024-03-17T04:38:53;99593.65;;;1.53;100.00
59588;BME280;45412;54.472;18.464;2024-03-17T04:41:40;99595.40;;;1.49;100.00
59588;BME280;45412;54.472;18.464;2024-03-17T04:44:30;99599.56;;;1.46;100.00
59588;BME280;45412;54.472;18.464;2024-03-17T04:47:16;99602.05;;;1.41;100.00
59588;BME280;45412;54.472;18.464;2024-03-17T04:50:03;99599.98;;;1.37;100.00
59588;BME280;45412;54.472;18.464;2024-03-17T04:52:50;99607.35;;;1.36;100.00
59588;BME280;45412;54.472;18.464;2024-03-17T04:55:37;99606.62;;;1.33;100.00
59588;BME280;45412;54.472;18.464;2024-03-17T04:58:24;99609.73;;;1.34;100.00
59588;BME280;45412;54.472;18.464;2024-03-17T05:01:11;99613.05;;;1.34;100.00
59588;BME280;45412;54.472;18.464;2024-03-17T05:03:59;99616.27;;;1.32;100.00
59588;BME280;45412;54.472;18.464;2024-03-17T05:06:46;99621.09;;;1.34;100.00
59588;BME280;45412;54.472;18.464;2024-03-17T05:09:33;99618.05;;;1.36;100.00
59588;BME280;45412;54.472;18.464;2024-03-17T05:12:20;99625.48;;;1.37;100.00
59588;BME280;45412;54.472;18.464;2024-03-17T05:15:07;99628.13;;;1.36;100.00
59588;BME280;45412;54.472;18.464;2024-03-17T05:17:54;99631.73;;;1.38;100.00
59588;BME280;45412;54.472;18.464;2024-03-17T05:20:41;99640.42;;;1.39;100.00
59588;BME280;45412;54.472;18.464;2024-03-17T05:23:29;99647.83;;;1.42;100.00
59588;BME280;45412;54.472;18.464;2024-03-17T05:26:16;99657.55;;;1.43;100.00
59588;BME280;45412;54.472;18.464;2024-03-17T05:29:02;99665.48;;;1.46;100.00
59588;BME280;45412;54.472;18.464;2024-03-17T05:31:52;99671.11;;;1.48;100.00
59588;BME280;45412;54.472;18.464;2024-03-17T05:34:42;99683.35;;;1.45;100.00
59588;BME280;45412;54.472;18.464;2024-03-17T05:37:29;99686.14;;;1.45;100.00
59588;BME280;45412;54.472;18.464;2024-03-17T05:40:17;99694.08;;;1.44;100.00
59588;BME280;45412;54.472;18.464;2024-03-17T05:43:04;99703.29;;;1.45;100.00
59588;BME280;45412;54.472;18.464;2024-03-17T05:45:55;99712.25;;;1.47;100.00
59588;BME280;45412;54.472;18.464;2024-03-17T05:48:42;99719.83;;;1.50;100.00
59588;BME280;45412;54.472;18.464;2024-03-17T05:51:29;99727.35;;;1.50;100.00
59588;BME280;45412;54.472;18.464;2024-03-17T05:54:16;99734.80;;;1.51;100.00
59588;BME280;45412;54.472;18.464;2024-03-17T05:57:04;99743.30;;;1.49;100.00
59588;BME280;45412;54.472;18.464;2024-03-17T05:59:50;99750.53;;;1.44;100.00
59588;BME280;45412;54.472;18.464;2024-03-17T06:02:37;99756.44;;;1.41;100.00
59588;BME280;45412;54.472;18.464;2024-03-17T06:05:23;99765.57;;;1.40;100.00
59588;BME280;45412;54.472;18.464;2024-03-17T06:08:10;99769.81;;;1.35;100.00
59588;BME280;45412;54.472;18.464;2024-03-17T06:10:58;99775.40;;;1.31;100.00
59588;BME280;45412;54.472;18.464;2024-03-17T06:13:46;99785.63;;;1.29;100.00
59588;BME280;45412;54.472;18.464;2024-03-17T06:16:33;99794.02;;;1.29;100.00
59588;BME280;45412;54.472;18.464;2024-03-17T06:19:20;99801.59;;;1.28;100.00
59588;BME280;45412;54.472;18.464;2024-03-17T06:22:07;99807.42;;;1.26;100.00
59588;BME280;45412;54.472;18.464;2024-03-17T06:24:53;99810.91;;;1.22;100.00
59588;BME280;45412;54.472;18.464;2024-03-17T06:27:40;99816.16;;;1.18;100.00
59588;BME280;45412;54.472;18.464;2024-03-17T06:30:27;99827.50;;;1.10;100.00
59588;BME280;45412;54.472;18.464;2024-03-17T06:33:18;99831.67;;;1.07;100.00
59588;BME280;45412;54.472;18.464;2024-03-17T06:36:06;99837.05;;;1.04;100.00
59588;BME280;45412;54.472;18.464;2024-03-17T06:38:53;99845.66;;;1.02;100.00
59588;BME280;45412;54.472;18.464;2024-03-17T06:41:40;99852.56;;;1.00;100.00
59588;BME280;45412;54.472;18.464;2024-03-17T06:44:27;99856.12;;;0.98;100.00
59588;BME280;45412;54.472;18.464;2024-03-17T06:47:16;99859.06;;;0.95;100.00
59588;BME280;45412;54.472;18.464;2024-03-17T06:50:04;99862.41;;;0.90;100.00
59588;BME280;45412;54.472;18.464;2024-03-17T06:52:51;99863.30;;;0.85;100.00
59588;BME280;45412;54.472;18.464;2024-03-17T06:55:38;99869.73;;;0.86;100.00
59588;BME280;45412;54.472;18.464;2024-03-17T06:58:27;99871.39;;;0.88;100.00
59588;BME280;45412;54.472;18.464;2024-03-17T07:01:14;99881.14;;;0.89;100.00
59588;BME280;45412;54.472;18.464;2024-03-17T07:04:00;99877.92;;;0.86;100.00
59588;BME280;45412;54.472;18.464;2024-03-17T07:06:47;99886.54;;;0.81;100.00
59588;BME280;45412;54.472;18.464;2024-03-17T07:09:34;99895.27;;;0.76;100.00
59588;BME280;45412;54.472;18.464;2024-03-17T07:12:20;99901.21;;;0.76;100.00
59588;BME280;45412;54.472;18.464;2024-03-17T07:15:08;99899.24;;;0.82;100.00
59588;BME280;45412;54.472;18.464;2024-03-17T07:17:57;99903.39;;;0.92;100.00
59588;BME280;45412;54.472;18.464;2024-03-17T07:20:44;99906.11;;;0.98;100.00
59588;BME280;45412;54.472;18.464;2024-03-17T07:23:33;99908.81;;;1.00;100.00
59588;BME280;45412;54.472;18.464;2024-03-17T07:26:19;99908.55;;;1.11;100.00
59588;BME280;45412;54.472;18.464;2024-03-17T07:29:06;99910.17;;;1.23;100.00
59588;BME280;45412;54.472;18.464;2024-03-17T07:31:54;99914.63;;;1.25;100.00
59588;BME280;45412;54.472;18.464;2024-03-17T07:34:41;99916.23;;;1.24;100.00
59588;BME280;45412;54.472;18.464;2024-03-17T07:37:27;99922.35;;;1.28;100.00
59588;BME280;45412;54.472;18.464;2024-03-17T07:40:14;99922.04;;;1.27;100.00
59588;BME280;45412;54.472;18.464;2024-03-17T07:43:02;99928.23;;;1.26;100.00
59588;BME280;45412;54.472;18.464;2024-03-17T07:46:03;99931.88;;;1.26;100.00
59588;BME280;45412;54.472;18.464;2024-03-17T07:48:53;99937.95;;;1.19;100.00
59588;BME280;45412;54.472;18.464;2024-03-17T07:51:40;99941.14;;;1.13;100.00
59588;BME280;45412;54.472;18.464;2024-03-17T07:54:26;99949.08;;;1.12;100.00
59588;BME280;45412;54.472;18.464;2024-03-17T07:57:13;99950.34;;;1.11;100.00
59588;BME280;45412;54.472;18.464;2024-03-17T08:00:00;99956.07;;;1.11;100.00
59588;BME280;45412;54.472;18.464;2024-03-17T08:02:49;99960.30;;;1.15;100.00
59588;BME280;45412;54.472;18.464;2024-03-17T08:05:35;99961.66;;;1.16;100.00
59588;BME280;45412;54.472;18.464;2024-03-17T08:08:22;99970.58;;;1.11;100.00
59588;BME280;45412;54.472;18.464;2024-03-17T08:11:08;99971.01;;;1.05;100.00
59588;BME280;45412;54.472;18.464;2024-03-17T08:13:54;99971.51;;;1.01;100.00
59588;BME280;45412;54.472;18.464;2024-03-17T08:16:41;99973.52;;;1.03;100.00
59588;BME280;45412;54.472;18.464;2024-03-17T08:19:27;99975.55;;;1.14;100.00
59588;BME280;45412;54.472;18.464;2024-03-17T08:22:14;99978.13;;;1.28;100.00
59588;BME280;45412;54.472;18.464;2024-03-17T08:25:03;99981.27;;;1.36;100.00
59588;BME280;45412;54.472;18.464;2024-03-17T08:27:51;99985.88;;;1.40;100.00
59588;BME280;45412;54.472;18.464;2024-03-17T08:30:38;99986.41;;;1.40;100.00
59588;BME280;45412;54.472;18.464;2024-03-17T08:33:25;99990.65;;;1.38;100.00
59588;BME280;45412;54.472;18.464;2024-03-17T08:36:12;99998.22;;;1.37;100.00
59588;BME280;45412;54.472;18.464;2024-03-17T08:38:58;100002.30;;;1.31;100.00
59588;BME280;45412;54.472;18.464;2024-03-17T08:41:45;100007.48;;;1.24;100.00
59588;BME280;45412;54.472;18.464;2024-03-17T08:44:31;100007.36;;;1.14;100.00
59588;BME280;45412;54.472;18.464;2024-03-17T08:47:17;100009.83;;;1.09;100.00
59588;BME280;45412;54.472;18.464;2024-03-17T08:50:04;100013.84;;;1.05;100.00
59588;BME280;45412;54.472;18.464;2024-03-17T08:52:53;100015.39;;;1.00;100.00
59588;BME280;45412;54.472;18.464;2024-03-17T08:55:40;100017.94;;;1.03;100.00
59588;BME280;45412;54.472;18.464;2024-03-17T08:58:27;100022.52;;;1.02;100.00
59588;BME280;45412;54.472;18.464;2024-03-17T09:01:15;100023.08;;;0.96;100.00
59588;BME280;45412;54.472;18.464;2024-03-17T09:04:02;100028.99;;;0.96;100.00
59588;BME280;45412;54.472;18.464;2024-03-17T09:06:48;100031.73;;;0.89;100.00
59588;BME280;45412;54.472;18.464;2024-03-17T09:09:35;100036.95;;;0.85;100.00
59588;BME280;45412;54.472;18.464;2024-03-17T09:12:21;100041.94;;;0.92;100.00
59588;BME280;45412;54.472;18.464;2024-03-17T09:15:08;100046.98;;;1.01;100.00
59588;BME280;45412;54.472;18.464;2024-03-17T09:17:58;100055.40;;;0.96;100.00
59588;BME280;45412;54.472;18.464;2024-03-17T09:20:45;100056.73;;;0.93;100.00
59588;BME280;45412;54.472;18.464;2024-03-17T09:23:33;100066.58;;;0.92;100.00
59588;BME280;45412;54.472;18.464;2024-03-17T09:26:20;100071.10;;;0.92;100.00
59588;BME280;45412;54.472;18.464;2024-03-17T09:29:07;100069.77;;;0.90;100.00
59588;BME280;45412;54.472;18.464;2024-03-17T09:31:53;100071.45;;;0.92;100.00
59588;BME280;45412;54.472;18.464;2024-03-17T09:34:39;100078.71;;;0.98;100.00
59588;BME280;45412;54.472;18.464;2024-03-17T09:37:25;100075.94;;;1.08;100.00
59588;BME280;45412;54.472;18.464;2024-03-17T09:40:14;100076.70;;;1.15;100.00
59588;BME280;45412;54.472;18.464;2024-03-17T09:43:01;100079.48;;;1.51;100.00
59588;BME280;45412;54.472;18.464;2024-03-17T09:45:49;100078.40;;;2.03;100.00
59588;BME280;45412;54.472;18.464;2024-03-17T09:48:36;100082.39;;;2.21;99.83
59588;BME280;45412;54.472;18.464;2024-03-17T09:51:25;100084.77;;;2.23;99.87
59588;BME280;45412;54.472;18.464;2024-03-17T09:54:18;100090.58;;;2.26;100.00
59588;BME280;45412;54.472;18.464;2024-03-17T09:57:15;100103.79;;;2.24;99.87
59588;BME280;45412;54.472;18.464;2024-03-17T10:00:14;100106.46;;;2.10;99.54
59588;BME280;45412;54.472;18.464;2024-03-17T10:03:00;100108.81;;;1.96;97.12
59588;BME280;45412;54.472;18.464;2024-03-17T10:05:59;100112.72;;;1.95;98.66
59588;BME280;45412;54.472;18.464;2024-03-17T10:08:50;100108.77;;;1.93;96.97
59588;BME280;45412;54.472;18.464;2024-03-17T10:11:37;100116.42;;;1.94;97.12
59588;BME280;45412;54.472;18.464;2024-03-17T10:14:23;100113.81;;;1.98;96.34
59588;BME280;45412;54.472;18.464;2024-03-17T10:17:09;100120.20;;;2.09;95.26
59588;BME280;45412;54.472;18.464;2024-03-17T10:20:19;100120.41;;;2.16;94.07
59588;BME280;45412;54.472;18.464;2024-03-17T10:23:06;100123.57;;;2.28;93.76
59588;BME280;45412;54.472;18.464;2024-03-17T10:25:54;100123.30;;;2.63;94.87
59588;BME280;45412;54.472;18.464;2024-03-17T10:28:44;100124.84;;;2.92;92.08
59588;BME280;45412;54.472;18.464;2024-03-17T10:31:30;100126.76;;;3.04;90.10
59588;BME280;45412;54.472;18.464;2024-03-17T10:34:16;100129.19;;;3.00;89.61
59588;BME280;45412;54.472;18.464;2024-03-17T10:37:18;100135.42;;;2.94;89.47
59588;BME280;45412;54.472;18.464;2024-03-17T10:40:12;100136.60;;;3.03;90.01
59588;BME280;45412;54.472;18.464;2024-03-17T10:43:02;100134.20;;;3.06;89.85
59588;BME280;45412;54.472;18.464;2024-03-17T10:45:49;100127.73;;;3.18;89.88
59588;BME280;45412;54.472;18.464;2024-03-17T10:48:36;100132.08;;;3.48;88.36
59588;BME280;45412;54.472;18.464;2024-03-17T10:51:22;100134.76;;;3.70;86.94
59588;BME280;45412;54.472;18.464;2024-03-17T10:54:10;100136.64;;;3.70;86.53
59588;BME280;45412;54.472;18.464;2024-03-17T11:00:22;100138.68;;;3.57;86.47
59588;BME280;45412;54.472;18.464;2024-03-17T11:03:09;100152.56;;;3.30;87.69
59588;BME280;45412;54.472;18.464;2024-03-17T11:05:58;100155.83;;;2.85;89.00
59588;BME280;45412;54.472;18.464;2024-03-17T11:08:45;100156.30;;;2.62;89.42
59588;BME280;45412;54.472;18.464;2024-03-17T11:11:38;100152.70;;;2.52;88.60
59588;BME280;45412;54.472;18.464;2024-03-17T11:14:27;100150.31;;;2.71;88.79
59588;BME280;45412;54.472;18.464;2024-03-17T11:17:18;100149.23;;;3.45;85.80
59588;BME280;45412;54.472;18.464;2024-03-17T11:20:31;100149.28;;;3.99;83.36
59588;BME280;45412;54.472;18.464;2024-03-17T11:23:29;100150.20;;;4.13;80.91
59588;BME280;45412;54.472;18.464;2024-03-17T11:26:26;100149.64;;;3.99;78.95
59588;BME280;45412;54.472;18.464;2024-03-17T11:29:29;100151.81;;;3.72;80.07
59588;BME280;45412;54.472;18.464;2024-03-17T11:32:25;100159.37;;;3.42;81.43
59588;BME280;45412;54.472;18.464;2024-03-17T11:35:14;100164.55;;;3.21;84.86
59588;BME280;45412;54.472;18.464;2024-03-17T11:38:00;100169.50;;;2.92;84.99
59588;BME280;45412;54.472;18.464;2024-03-17T11:40:46;100171.20;;;2.57;85.61
59588;BME280;45412;54.472;18.464;2024-03-17T11:43:33;100179.25;;;2.32;89.51
59588;BME280;45412;54.472;18.464;2024-03-17T11:46:21;100183.45;;;2.20;91.82
59588;BME280;45412;54.472;18.464;2024-03-17T11:49:23;100190.61;;;2.12;92.58
59588;BME280;45412;54.472;18.464;2024-03-17T11:52:12;100187.75;;;2.00;93.63
59588;BME280;45412;54.472;18.464;2024-03-17T11:54:59;100189.90;;;1.98;94.40
59588;BME280;45412;54.472;18.464;2024-03-17T11:57:45;100196.61;;;2.06;93.62
59588;BME280;45412;54.472;18.464;2024-03-17T12:00:31;100196.86;;;2.22;93.15
59588;BME280;45412;54.472;18.464;2024-03-17T12:03:19;100199.83;;;2.31;92.45
59588;BME280;45412;54.472;18.464;2024-03-17T12:06:05;100203.53;;;2.30;92.90
59588;BME280;45412;54.472;18.464;2024-03-17T12:08:52;100205.59;;;2.22;91.79
59588;BME280;45412;54.472;18.464;2024-03-17T12:11:38;100203.69;;;2.21;91.76
59588;BME280;45412;54.472;18.464;2024-03-17T12:14:25;100202.77;;;2.18;90.41
59588;BME280;45412;54.472;18.464;2024-03-17T12:17:13;100208.57;;;2.18;89.81
59588;BME280;45412;54.472;18.464;2024-03-17T12:20:00;100208.05;;;2.00;89.63
59588;BME280;45412;54.472;18.464;2024-03-17T12:22:47;100208.65;;;1.98;89.32
59588;BME280;45412;54.472;18.464;2024-03-17T12:25:34;100210.89;;;2.12;88.69
59588;BME280;45412;54.472;18.464;2024-03-17T12:28:21;100209.33;;;2.25;89.58
59588;BME280;45412;54.472;18.464;2024-03-17T12:31:07;100214.94;;;2.33;89.70
59588;BME280;45412;54.472;18.464;2024-03-17T12:33:54;100220.60;;;2.45;88.80
59588;BME280;45412;54.472;18.464;2024-03-17T12:36:40;100219.75;;;2.40;86.24
59588;BME280;45412;54.472;18.464;2024-03-17T12:39:36;100221.65;;;2.36;86.85
59588;BME280;45412;54.472;18.464;2024-03-17T12:42:29;100224.02;;;2.43;87.48
59588;BME280;45412;54.472;18.464;2024-03-17T12:45:20;100219.69;;;2.33;86.23
59588;BME280;45412;54.472;18.464;2024-03-17T12:48:13;100220.98;;;2.10;87.79
59588;BME280;45412;54.472;18.464;2024-03-17T12:51:00;100223.29;;;1.87;90.53
59588;BME280;45412;54.472;18.464;2024-03-17T12:53:46;100223.56;;;1.75;93.01
59588;BME280;45412;54.472;18.464;2024-03-17T12:56:32;100221.10;;;1.71;93.10
59588;BME280;45412;54.472;18.464;2024-03-17T12:59:41;100224.05;;;1.62;91.94
59588;BME280;45412;54.472;18.464;2024-03-17T13:03:01;100227.96;;;1.46;92.59
59588;BME280;45412;54.472;18.464;2024-03-17T13:05:47;100236.41;;;1.40;93.20
59588;BME280;45412;54.472;18.464;2024-03-17T13:08:34;100234.83;;;1.40;94.25
59588;BME280;45412;54.472;18.464;2024-03-17T13:11:21;100241.42;;;1.42;94.48
59588;BME280;45412;54.472;18.464;2024-03-17T13:14:08;100240.36;;;1.38;94.88
59588;BME280;45412;54.472;18.464;2024-03-17T13:16:59;100242.88;;;1.30;94.58
59588;BME280;45412;54.472;18.464;2024-03-17T13:19:46;100245.01;;;1.20;94.74
59588;BME280;45412;54.472;18.464;2024-03-17T13:22:32;100249.34;;;1.16;95.81
59588;BME280;45412;54.472;18.464;2024-03-17T13:25:21;100255.11;;;1.11;95.96
59588;BME280;45412;54.472;18.464;2024-03-17T13:28:09;100255.84;;;1.10;95.87
59588;BME280;45412;54.472;18.464;2024-03-17T13:30:56;100257.46;;;1.09;95.53
59588;BME280;45412;54.472;18.464;2024-03-17T13:33:43;100253.73;;;1.05;94.74
59588;BME280;45412;54.472;18.464;2024-03-17T13:36:29;100253.23;;;1.05;94.59
59588;BME280;45412;54.472;18.464;2024-03-17T13:39:15;100256.42;;;1.09;94.81
59588;BME280;45412;54.472;18.464;2024-03-17T13:42:05;100258.48;;;1.09;94.53
59588;BME280;45412;54.472;18.464;2024-03-17T13:44:51;100260.25;;;1.09;94.55
59588;BME280;45412;54.472;18.464;2024-03-17T13:47:48;100262.36;;;0.99;94.83
59588;BME280;45412;54.472;18.464;2024-03-17T13:50:37;100268.46;;;0.89;95.72
59588;BME280;45412;54.472;18.464;2024-03-17T13:53:24;100270.14;;;0.75;96.35
59588;BME280;45412;54.472;18.464;2024-03-17T13:56:11;100272.06;;;0.64;97.16
59588;BME280;45412;54.472;18.464;2024-03-17T13:58:59;100271.60;;;0.63;98.01
59588;BME280;45412;54.472;18.464;2024-03-17T14:01:45;100271.56;;;0.59;98.01
59588;BME280;45412;54.472;18.464;2024-03-17T14:04:32;100272.52;;;0.62;99.28
59588;BME280;45412;54.472;18.464;2024-03-17T14:07:19;100270.45;;;0.66;99.13
59588;BME280;45412;54.472;18.464;2024-03-17T14:10:06;100275.79;;;0.63;99.13
59588;BME280;45412;54.472;18.464;2024-03-17T14:12:54;100273.21;;;0.62;98.36
59588;BME280;45412;54.472;18.464;2024-03-17T14:15:43;100272.48;;;0.58;97.88
59588;BME280;45412;54.472;18.464;2024-03-17T14:18:31;100275.23;;;0.54;97.95
59588;BME280;45412;54.472;18.464;2024-03-17T14:21:18;100277.90;;;0.52;97.45
59588;BME280;45412;54.472;18.464;2024-03-17T14:24:04;100282.42;;;0.58;98.48
59588;BME280;45412;54.472;18.464;2024-03-17T14:26:53;100281.44;;;0.61;97.36
59588;BME280;45412;54.472;18.464;2024-03-17T14:29:39;100282.14;;;0.61;96.87
59588;BME280;45412;54.472;18.464;2024-03-17T14:32:25;100280.63;;;0.60;95.60
59588;BME280;45412;54.472;18.464;2024-03-17T14:35:17;100282.33;;;0.61;95.29
59588;BME280;45412;54.472;18.464;2024-03-17T14:38:04;100275.10;;;0.57;94.01
59588;BME280;45412;54.472;18.464;2024-03-17T14:40:53;100271.92;;;0.58;93.30
59588;BME280;45412;54.472;18.464;2024-03-17T14:43:39;100269.00;;;0.62;92.69